sensor_id;sensor_type;location;lat;lon;timestamp;P1;durP1;ratioP1;P2;durP2;ratioP2
71164;SDS011;58859;55.132;-1.586;2023-04-15T00:01:23;1.98;;;1.70;;
71164;SDS011;58859;55.132;-1.586;2023-04-15T00:03:52;3.37;;;1.73;;
71164;SDS011;58859;55.132;-1.586;2023-04-15T00:06:18;2.22;;;1.65;;
71164;SDS011;58859;55.132;-1.586;2023-04-15T00:08:46;1.60;;;1.50;;
71164;SDS011;58859;55.132;-1.586;2023-04-15T00:11:13;2.08;;;1.70;;
71164;SDS011;58859;55.132;-1.586;2023-04-15T00:13:39;2.78;;;1.58;;
71164;SDS011;58859;55.132;-1.586;2023-04-15T00:16:05;1.90;;;1.70;;
71164;SDS011;58859;55.132;-1.586;2023-04-15T00:18:32;2.90;;;1.90;;
71164;SDS011;58859;55.132;-1.586;2023-04-15T00:20:58;2.58;;;1.33;;
71164;SDS011;58859;55.132;-1.586;2023-04-15T00:23:23;1.57;;;1.47;;
71164;SDS011;58859;55.132;-1.586;2023-04-15T00:25:50;1.90;;;1.60;;
71164;SDS011;58859;55.132;-1.586;2023-04-15T00:28:16;2.33;;;1.80;;
71164;SDS011;58859;55.132;-1.586;2023-04-15T00:30:41;2.95;;;1.77;;
71164;SDS011;58859;55.132;-1.586;2023-04-15T00:33:07;2.67;;;1.40;;
71164;SDS011;58859;55.132;-1.586;2023-04-15T00:35:33;1.58;;;1.48;;
71164;SDS011;58859;55.132;-1.586;2023-04-15T00:38:00;2.72;;;1.48;;
71164;SDS011;58859;55.132;-1.586;2023-04-15T00:40:26;4.67;;;1.83;;
71164;SDS011;58859;55.132;-1.586;2023-04-15T00:42:51;1.67;;;1.17;;
71164;SDS011;58859;55.132;-1.586;2023-04-15T00:45:17;1.20;;;1.10;;
71164;SDS011;58859;55.132;-1.586;2023-04-15T00:47:43;2.50;;;1.42;;
71164;SDS011;58859;55.132;-1.586;2023-04-15T00:50:11;1.40;;;1.30;;
71164;SDS011;58859;55.132;-1.586;2023-04-15T00:52:37;1.80;;;1.60;;
71164;SDS011;58859;55.132;-1.586;2023-04-15T00:55:03;1.20;;;1.20;;
71164;SDS011;58859;55.132;-1.586;2023-04-15T00:57:29;1.30;;;1.20;;
71164;SDS011;58859;55.132;-1.586;2023-04-15T00:59:55;2.85;;;1.40;;
71164;SDS011;58859;55.132;-1.586;2023-04-15T01:02:22;2.90;;;1.40;;
71164;SDS011;58859;55.132;-1.586;2023-04-15T01:04:48;3.08;;;1.33;;
71164;SDS011;58859;55.132;-1.586;2023-04-15T01:07:13;3.35;;;1.30;;
71164;SDS011;58859;55.132;-1.586;2023-04-15T01:09:39;1.50;;;1.40;;
71164;SDS011;58859;55.132;-1.586;2023-04-15T01:12:05;3.55;;;1.80;;
71164;SDS011;58859;55.132;-1.586;2023-04-15T01:14:32;1.58;;;1.25;;
71164;SDS011;58859;55.132;-1.586;2023-04-15T01:16:58;1.60;;;1.20;;
71164;SDS011;58859;55.132;-1.586;2023-04-15T01:19:23;1.30;;;1.20;;
71164;SDS011;58859;55.132;-1.586;2023-04-15T01:21:49;1.35;;;1.25;;
71164;SDS011;58859;55.132;-1.586;2023-04-15T01:24:14;2.83;;;1.80;;
71164;SDS011;58859;55.132;-1.586;2023-04-15T01:26:42;3.20;;;1.63;;
71164;SDS011;58859;55.132;-1.586;2023-04-15T01:29:07;1.17;;;1.07;;
71164;SDS011;58859;55.132;-1.586;2023-04-15T01:31:33;3.35;;;1.67;;
71164;SDS011;58859;55.132;-1.586;2023-04-15T01:33:59;3.90;;;1.50;;
71164;SDS011;58859;55.132;-1.586;2023-04-15T01:36:24;2.25;;;1.17;;
71164;SDS011;58859;55.132;-1.586;2023-04-15T01:38:50;1.27;;;1.17;;
71164;SDS011;58859;55.132;-1.586;2023-04-15T01:41:15;6.33;;;1.70;;
71164;SDS011;58859;55.132;-1.586;2023-04-15T01:43:41;1.65;;;1.30;;
71164;SDS011;58859;55.132;-1.586;2023-04-15T01:46:06;2.97;;;1.33;;
71164;SDS011;58859;55.132;-1.586;2023-04-15T01:48:32;2.07;;;1.33;;
71164;SDS011;58859;55.132;-1.586;2023-04-15T01:50:57;3.15;;;1.38;;
71164;SDS011;58859;55.132;-1.586;2023-04-15T01:53:24;3.92;;;1.60;;
71164;SDS011;58859;55.132;-1.586;2023-04-15T01:55:50;2.50;;;1.85;;
71164;SDS011;58859;55.132;-1.586;2023-04-15T01:58:16;4.90;;;1.75;;
71164;SDS011;58859;55.132;-1.586;2023-04-15T02:00:42;8.55;;;2.35;;
71164;SDS011;58859;55.132;-1.586;2023-04-15T02:03:07;9.35;;;3.15;;
71164;SDS011;58859;55.132;-1.586;2023-04-15T02:05:33;12.10;;;2.97;;
71164;SDS011;58859;55.132;-1.586;2023-04-15T02:07:59;6.20;;;3.15;;
71164;SDS011;58859;55.132;-1.586;2023-04-15T02:10:25;8.43;;;2.77;;
71164;SDS011;58859;55.132;-1.586;2023-04-15T02:12:51;10.98;;;3.10;;
71164;SDS011;58859;55.132;-1.586;2023-04-15T02:15:16;11.53;;;3.57;;
71164;SDS011;58859;55.132;-1.586;2023-04-15T02:17:42;7.53;;;2.75;;
71164;SDS011;58859;55.132;-1.586;2023-04-15T02:20:10;12.50;;;4.00;;
71164;SDS011;58859;55.132;-1.586;2023-04-15T02:22:36;7.18;;;2.17;;
71164;SDS011;58859;55.132;-1.586;2023-04-15T02:25:01;8.63;;;3.03;;
71164;SDS011;58859;55.132;-1.586;2023-04-15T02:27:27;3.70;;;2.33;;
71164;SDS011;58859;55.132;-1.586;2023-04-15T02:29:52;6.63;;;2.10;;
71164;SDS011;58859;55.132;-1.586;2023-04-15T02:32:18;3.73;;;1.87;;
71164;SDS011;58859;55.132;-1.586;2023-04-15T02:34:44;3.17;;;1.92;;
71164;SDS011;58859;55.132;-1.586;2023-04-15T02:37:11;3.17;;;1.60;;
71164;SDS011;58859;55.132;-1.586;2023-04-15T02:39:37;7.43;;;1.88;;
71164;SDS011;58859;55.132;-1.586;2023-04-15T02:42:02;3.67;;;1.60;;
71164;SDS011;58859;55.132;-1.586;2023-04-15T02:44:30;4.10;;;1.80;;
71164;SDS011;58859;55.132;-1.586;2023-04-15T02:46:56;2.50;;;1.30;;
71164;SDS011;58859;55.132;-1.586;2023-04-15T02:49:22;3.20;;;1.70;;
71164;SDS011;58859;55.132;-1.586;2023-04-15T02:51:48;3.55;;;1.80;;
71164;SDS011;58859;55.132;-1.586;2023-04-15T02:54:18;1.70;;;1.60;;
71164;SDS011;58859;55.132;-1.586;2023-04-15T02:56:44;3.85;;;1.95;;
71164;SDS011;58859;55.132;-1.586;2023-04-15T02:59:11;5.25;;;1.88;;
71164;SDS011;58859;55.132;-1.586;2023-04-15T03:01:36;2.80;;;1.50;;
71164;SDS011;58859;55.132;-1.586;2023-04-15T03:04:02;4.47;;;1.83;;
71164;SDS011;58859;55.132;-1.586;2023-04-15T03:06:27;3.83;;;1.83;;
71164;SDS011;58859;55.132;-1.586;2023-04-15T03:08:53;3.80;;;1.87;;
71164;SDS011;58859;55.132;-1.586;2023-04-15T03:11:18;4.63;;;1.73;;
71164;SDS011;58859;55.132;-1.586;2023-04-15T03:13:45;3.45;;;1.77;;
71164;SDS011;58859;55.132;-1.586;2023-04-15T03:16:11;2.53;;;1.60;;
71164;SDS011;58859;55.132;-1.586;2023-04-15T03:18:36;2.80;;;2.20;;
71164;SDS011;58859;55.132;-1.586;2023-04-15T03:21:02;2.15;;;1.90;;
71164;SDS011;58859;55.132;-1.586;2023-04-15T03:23:29;3.65;;;1.60;;
71164;SDS011;58859;55.132;-1.586;2023-04-15T03:25:55;2.58;;;1.33;;
71164;SDS011;58859;55.132;-1.586;2023-04-15T03:28:21;3.22;;;1.70;;
71164;SDS011;58859;55.132;-1.586;2023-04-15T03:30:47;2.47;;;1.50;;
71164;SDS011;58859;55.132;-1.586;2023-04-15T03:33:12;4.13;;;2.07;;
71164;SDS011;58859;55.132;-1.586;2023-04-15T03:35:38;4.80;;;2.00;;
71164;SDS011;58859;55.132;-1.586;2023-04-15T03:38:03;5.27;;;2.57;;
71164;SDS011;58859;55.132;-1.586;2023-04-15T03:40:29;3.30;;;1.83;;
71164;SDS011;58859;55.132;-1.586;2023-04-15T03:42:54;3.30;;;2.03;;
71164;SDS011;58859;55.132;-1.586;2023-04-15T03:45:20;3.35;;;1.95;;
71164;SDS011;58859;55.132;-1.586;2023-04-15T03:47:45;2.70;;;2.20;;
71164;SDS011;58859;55.132;-1.586;2023-04-15T03:50:11;2.40;;;1.80;;
71164;SDS011;58859;55.132;-1.586;2023-04-15T03:52:36;4.70;;;1.92;;
71164;SDS011;58859;55.132;-1.586;2023-04-15T03:55:02;5.33;;;2.10;;
71164;SDS011;58859;55.132;-1.586;2023-04-15T03:57:27;4.33;;;1.80;;
71164;SDS011;58859;55.132;-1.586;2023-04-15T03:59:53;5.13;;;2.17;;
71164;SDS011;58859;55.132;-1.586;2023-04-15T04:02:18;2.80;;;1.88;;
71164;SDS011;58859;55.132;-1.586;2023-04-15T04:04:44;4.23;;;2.00;;
71164;SDS011;58859;55.132;-1.586;2023-04-15T04:07:13;3.33;;;1.83;;
71164;SDS011;58859;55.132;-1.586;2023-04-15T04:09:40;5.10;;;1.95;;
71164;SDS011;58859;55.132;-1.586;2023-04-15T04:12:06;2.90;;;2.00;;
71164;SDS011;58859;55.132;-1.586;2023-04-15T04:14:31;3.03;;;2.55;;
71164;SDS011;58859;55.132;-1.586;2023-04-15T04:16:57;3.43;;;2.47;;
71164;SDS011;58859;55.132;-1.586;2023-04-15T04:19:22;5.47;;;2.50;;
71164;SDS011;58859;55.132;-1.586;2023-04-15T04:21:47;4.20;;;2.40;;
71164;SDS011;58859;55.132;-1.586;2023-04-15T04:24:13;6.22;;;2.50;;
71164;SDS011;58859;55.132;-1.586;2023-04-15T04:26:38;4.00;;;2.07;;
71164;SDS011;58859;55.132;-1.586;2023-04-15T04:29:04;3.73;;;2.53;;
71164;SDS011;58859;55.132;-1.586;2023-04-15T04:31:29;4.73;;;2.33;;
71164;SDS011;58859;55.132;-1.586;2023-04-15T04:33:55;4.43;;;2.55;;
71164;SDS011;58859;55.132;-1.586;2023-04-15T04:36:20;3.43;;;1.73;;
71164;SDS011;58859;55.132;-1.586;2023-04-15T04:38:45;4.40;;;1.90;;
71164;SDS011;58859;55.132;-1.586;2023-04-15T04:41:11;2.47;;;2.20;;
71164;SDS011;58859;55.132;-1.586;2023-04-15T04:43:36;3.73;;;2.70;;
71164;SDS011;58859;55.132;-1.586;2023-04-15T04:46:01;6.43;;;2.23;;
71164;SDS011;58859;55.132;-1.586;2023-04-15T04:48:27;6.00;;;1.97;;
71164;SDS011;58859;55.132;-1.586;2023-04-15T04:50:52;3.97;;;1.98;;
71164;SDS011;58859;55.132;-1.586;2023-04-15T04:53:18;2.57;;;1.83;;
71164;SDS011;58859;55.132;-1.586;2023-04-15T04:55:43;2.27;;;2.07;;
71164;SDS011;58859;55.132;-1.586;2023-04-15T04:58:08;2.27;;;2.00;;
71164;SDS011;58859;55.132;-1.586;2023-04-15T05:00:34;3.03;;;1.50;;
71164;SDS011;58859;55.132;-1.586;2023-04-15T05:03:01;5.15;;;2.05;;
71164;SDS011;58859;55.132;-1.586;2023-04-15T05:05:27;4.17;;;2.20;;
71164;SDS011;58859;55.132;-1.586;2023-04-15T05:07:52;4.40;;;2.40;;
71164;SDS011;58859;55.132;-1.586;2023-04-15T05:10:18;4.45;;;1.63;;
71164;SDS011;58859;55.132;-1.586;2023-04-15T05:12:43;3.00;;;1.90;;
71164;SDS011;58859;55.132;-1.586;2023-04-15T05:15:09;2.60;;;2.40;;
71164;SDS011;58859;55.132;-1.586;2023-04-15T05:17:34;4.57;;;2.38;;
71164;SDS011;58859;55.132;-1.586;2023-04-15T05:20:00;2.47;;;2.00;;
71164;SDS011;58859;55.132;-1.586;2023-04-15T05:22:26;2.80;;;2.08;;
71164;SDS011;58859;55.132;-1.586;2023-04-15T05:24:52;4.77;;;2.70;;
71164;SDS011;58859;55.132;-1.586;2023-04-15T05:27:17;4.80;;;3.40;;
71164;SDS011;58859;55.132;-1.586;2023-04-15T05:29:43;4.40;;;3.03;;
71164;SDS011;58859;55.132;-1.586;2023-04-15T05:32:09;6.32;;;3.00;;
71164;SDS011;58859;55.132;-1.586;2023-04-15T05:34:34;3.33;;;2.43;;
71164;SDS011;58859;55.132;-1.586;2023-04-15T05:37:00;3.95;;;2.28;;
71164;SDS011;58859;55.132;-1.586;2023-04-15T05:39:26;5.07;;;2.83;;
71164;SDS011;58859;55.132;-1.586;2023-04-15T05:41:51;4.65;;;2.67;;
71164;SDS011;58859;55.132;-1.586;2023-04-15T05:44:17;4.57;;;2.70;;
71164;SDS011;58859;55.132;-1.586;2023-04-15T05:46:42;5.07;;;2.43;;
71164;SDS011;58859;55.132;-1.586;2023-04-15T05:49:08;6.37;;;2.60;;
71164;SDS011;58859;55.132;-1.586;2023-04-15T05:51:33;3.83;;;2.95;;
71164;SDS011;58859;55.132;-1.586;2023-04-15T05:53:58;4.73;;;3.23;;
71164;SDS011;58859;55.132;-1.586;2023-04-15T05:56:24;2.90;;;2.63;;
71164;SDS011;58859;55.132;-1.586;2023-04-15T05:58:51;4.50;;;2.85;;
71164;SDS011;58859;55.132;-1.586;2023-04-15T06:01:17;5.72;;;3.55;;
71164;SDS011;58859;55.132;-1.586;2023-04-15T06:03:43;5.70;;;3.17;;
71164;SDS011;58859;55.132;-1.586;2023-04-15T06:06:08;5.60;;;3.37;;
71164;SDS011;58859;55.132;-1.586;2023-04-15T06:08:34;4.57;;;3.20;;
71164;SDS011;58859;55.132;-1.586;2023-04-15T06:10:59;5.40;;;3.70;;
71164;SDS011;58859;55.132;-1.586;2023-04-15T06:13:25;9.83;;;4.23;;
71164;SDS011;58859;55.132;-1.586;2023-04-15T06:15:51;5.05;;;3.50;;
71164;SDS011;58859;55.132;-1.586;2023-04-15T06:18:17;8.35;;;4.03;;
71164;SDS011;58859;55.132;-1.586;2023-04-15T06:20:44;5.60;;;3.58;;
71164;SDS011;58859;55.132;-1.586;2023-04-15T06:23:09;8.40;;;4.83;;
71164;SDS011;58859;55.132;-1.586;2023-04-15T06:25:35;14.37;;;4.80;;
71164;SDS011;58859;55.132;-1.586;2023-04-15T06:28:00;10.85;;;4.20;;
71164;SDS011;58859;55.132;-1.586;2023-04-15T06:30:26;14.17;;;4.70;;
71164;SDS011;58859;55.132;-1.586;2023-04-15T06:32:51;13.80;;;5.90;;
71164;SDS011;58859;55.132;-1.586;2023-04-15T06:35:17;14.57;;;5.82;;
71164;SDS011;58859;55.132;-1.586;2023-04-15T06:37:43;13.65;;;5.75;;
71164;SDS011;58859;55.132;-1.586;2023-04-15T06:40:08;15.30;;;6.20;;
71164;SDS011;58859;55.132;-1.586;2023-04-15T06:42:34;17.85;;;6.90;;
71164;SDS011;58859;55.132;-1.586;2023-04-15T06:45:00;16.33;;;6.10;;
71164;SDS011;58859;55.132;-1.586;2023-04-15T06:47:26;15.73;;;5.97;;
71164;SDS011;58859;55.132;-1.586;2023-04-15T06:49:51;15.47;;;6.53;;
71164;SDS011;58859;55.132;-1.586;2023-04-15T06:52:17;18.37;;;6.60;;
71164;SDS011;58859;55.132;-1.586;2023-04-15T06:54:42;17.20;;;6.57;;
71164;SDS011;58859;55.132;-1.586;2023-04-15T06:57:07;15.20;;;6.40;;
71164;SDS011;58859;55.132;-1.586;2023-04-15T06:59:33;17.47;;;7.03;;
71164;SDS011;58859;55.132;-1.586;2023-04-15T07:01:59;25.27;;;7.22;;
71164;SDS011;58859;55.132;-1.586;2023-04-15T07:04:25;14.93;;;5.63;;
71164;SDS011;58859;55.132;-1.586;2023-04-15T07:06:51;13.45;;;6.30;;
71164;SDS011;58859;55.132;-1.586;2023-04-15T07:09:18;16.40;;;6.40;;
71164;SDS011;58859;55.132;-1.586;2023-04-15T07:11:43;11.00;;;5.63;;
71164;SDS011;58859;55.132;-1.586;2023-04-15T07:14:09;11.80;;;5.53;;
71164;SDS011;58859;55.132;-1.586;2023-04-15T07:16:35;19.70;;;6.28;;
71164;SDS011;58859;55.132;-1.586;2023-04-15T07:19:00;11.47;;;5.43;;
71164;SDS011;58859;55.132;-1.586;2023-04-15T07:21:26;18.27;;;7.60;;
71164;SDS011;58859;55.132;-1.586;2023-04-15T07:23:51;17.20;;;8.52;;
71164;SDS011;58859;55.132;-1.586;2023-04-15T07:26:17;14.53;;;5.97;;
71164;SDS011;58859;55.132;-1.586;2023-04-15T07:28:42;13.23;;;8.38;;
71164;SDS011;58859;55.132;-1.586;2023-04-15T07:31:08;15.73;;;7.30;;
71164;SDS011;58859;55.132;-1.586;2023-04-15T07:33:33;14.87;;;6.17;;
71164;SDS011;58859;55.132;-1.586;2023-04-15T07:35:59;9.67;;;5.10;;
71164;SDS011;58859;55.132;-1.586;2023-04-15T07:38:24;14.80;;;5.50;;
71164;SDS011;58859;55.132;-1.586;2023-04-15T07:40:50;12.20;;;4.10;;
71164;SDS011;58859;55.132;-1.586;2023-04-15T07:43:16;11.70;;;4.50;;
71164;SDS011;58859;55.132;-1.586;2023-04-15T07:45:42;11.98;;;5.22;;
71164;SDS011;58859;55.132;-1.586;2023-04-15T07:48:08;10.50;;;5.33;;
71164;SDS011;58859;55.132;-1.586;2023-04-15T07:50:33;13.20;;;7.15;;
71164;SDS011;58859;55.132;-1.586;2023-04-15T07:52:58;17.47;;;6.30;;
71164;SDS011;58859;55.132;-1.586;2023-04-15T07:55:24;11.50;;;7.83;;
71164;SDS011;58859;55.132;-1.586;2023-04-15T07:57:50;17.30;;;7.57;;
71164;SDS011;58859;55.132;-1.586;2023-04-15T08:00:15;11.55;;;6.28;;
71164;SDS011;58859;55.132;-1.586;2023-04-15T08:02:41;11.87;;;6.10;;
71164;SDS011;58859;55.132;-1.586;2023-04-15T08:05:07;12.80;;;8.63;;
71164;SDS011;58859;55.132;-1.586;2023-04-15T08:07:35;11.07;;;6.38;;
71164;SDS011;58859;55.132;-1.586;2023-04-15T08:10:01;14.15;;;7.00;;
71164;SDS011;58859;55.132;-1.586;2023-04-15T08:12:27;13.90;;;6.63;;
71164;SDS011;58859;55.132;-1.586;2023-04-15T08:14:53;12.00;;;5.93;;
71164;SDS011;58859;55.132;-1.586;2023-04-15T08:17:19;7.43;;;4.13;;
71164;SDS011;58859;55.132;-1.586;2023-04-15T08:19:45;14.17;;;6.43;;
71164;SDS011;58859;55.132;-1.586;2023-04-15T08:22:12;15.18;;;6.65;;
71164;SDS011;58859;55.132;-1.586;2023-04-15T08:24:37;8.07;;;6.38;;
71164;SDS011;58859;55.132;-1.586;2023-04-15T08:27:03;11.57;;;7.47;;
71164;SDS011;58859;55.132;-1.586;2023-04-15T08:29:29;12.35;;;6.38;;
71164;SDS011;58859;55.132;-1.586;2023-04-15T08:31:58;12.77;;;6.27;;
71164;SDS011;58859;55.132;-1.586;2023-04-15T08:34:28;12.77;;;5.35;;
71164;SDS011;58859;55.132;-1.586;2023-04-15T08:36:53;9.35;;;5.57;;
71164;SDS011;58859;55.132;-1.586;2023-04-15T08:39:19;18.03;;;6.43;;
71164;SDS011;58859;55.132;-1.586;2023-04-15T08:42:07;11.20;;;4.72;;
71164;SDS011;58859;55.132;-1.586;2023-04-15T08:44:35;12.73;;;5.22;;
71164;SDS011;58859;55.132;-1.586;2023-04-15T08:47:05;12.93;;;5.25;;
71164;SDS011;58859;55.132;-1.586;2023-04-15T08:49:32;12.23;;;5.75;;
71164;SDS011;58859;55.132;-1.586;2023-04-15T08:52:04;11.20;;;5.65;;
71164;SDS011;58859;55.132;-1.586;2023-04-15T08:54:30;10.48;;;4.75;;
71164;SDS011;58859;55.132;-1.586;2023-04-15T08:56:56;7.82;;;4.40;;
71164;SDS011;58859;55.132;-1.586;2023-04-15T08:59:22;14.97;;;5.40;;
71164;SDS011;58859;55.132;-1.586;2023-04-15T09:01:48;8.07;;;4.88;;
71164;SDS011;58859;55.132;-1.586;2023-04-15T09:04:17;11.52;;;4.53;;
71164;SDS011;58859;55.132;-1.586;2023-04-15T09:06:43;12.00;;;5.53;;
71164;SDS011;58859;55.132;-1.586;2023-04-15T09:09:08;10.88;;;5.38;;
71164;SDS011;58859;55.132;-1.586;2023-04-15T09:11:34;16.43;;;5.93;;
71164;SDS011;58859;55.132;-1.586;2023-04-15T09:14:00;15.73;;;5.72;;
71164;SDS011;58859;55.132;-1.586;2023-04-15T09:16:26;13.63;;;6.57;;
71164;SDS011;58859;55.132;-1.586;2023-04-15T09:18:52;11.07;;;5.32;;
71164;SDS011;58859;55.132;-1.586;2023-04-15T09:21:18;12.23;;;5.95;;
71164;SDS011;58859;55.132;-1.586;2023-04-15T09:23:59;12.55;;;5.35;;
71164;SDS011;58859;55.132;-1.586;2023-04-15T09:26:32;6.50;;;5.03;;
71164;SDS011;58859;55.132;-1.586;2023-04-15T09:29:08;16.23;;;6.63;;
71164;SDS011;58859;55.132;-1.586;2023-04-15T09:31:37;14.77;;;6.22;;
71164;SDS011;58859;55.132;-1.586;2023-04-15T09:34:04;14.40;;;5.50;;
71164;SDS011;58859;55.132;-1.586;2023-04-15T09:36:50;18.58;;;7.55;;
71164;SDS011;58859;55.132;-1.586;2023-04-15T09:39:20;8.45;;;5.55;;
71164;SDS011;58859;55.132;-1.586;2023-04-15T09:41:45;13.73;;;6.60;;
71164;SDS011;58859;55.132;-1.586;2023-04-15T09:44:23;22.13;;;7.75;;
71164;SDS011;58859;55.132;-1.586;2023-04-15T09:46:49;20.00;;;6.80;;
71164;SDS011;58859;55.132;-1.586;2023-04-15T09:49:15;12.63;;;5.30;;
71164;SDS011;58859;55.132;-1.586;2023-04-15T09:51:41;12.57;;;5.53;;
71164;SDS011;58859;55.132;-1.586;2023-04-15T09:54:08;10.77;;;4.70;;
71164;SDS011;58859;55.132;-1.586;2023-04-15T09:56:34;18.10;;;6.00;;
71164;SDS011;58859;55.132;-1.586;2023-04-15T09:59:01;14.53;;;5.50;;
71164;SDS011;58859;55.132;-1.586;2023-04-15T10:01:27;14.57;;;5.63;;
71164;SDS011;58859;55.132;-1.586;2023-04-15T10:03:53;13.32;;;5.38;;
71164;SDS011;58859;55.132;-1.586;2023-04-15T10:06:22;17.10;;;5.47;;
71164;SDS011;58859;55.132;-1.586;2023-04-15T10:08:49;14.73;;;6.05;;
71164;SDS011;58859;55.132;-1.586;2023-04-15T10:11:16;20.67;;;5.50;;
71164;SDS011;58859;55.132;-1.586;2023-04-15T10:13:48;8.40;;;4.60;;
71164;SDS011;58859;55.132;-1.586;2023-04-15T10:16:15;12.70;;;4.53;;
71164;SDS011;58859;55.132;-1.586;2023-04-15T10:18:44;14.80;;;4.43;;
71164;SDS011;58859;55.132;-1.586;2023-04-15T10:21:11;9.90;;;4.13;;
71164;SDS011;58859;55.132;-1.586;2023-04-15T10:23:42;15.20;;;4.50;;
71164;SDS011;58859;55.132;-1.586;2023-04-15T10:26:09;13.13;;;4.57;;
71164;SDS011;58859;55.132;-1.586;2023-04-15T10:28:37;10.57;;;5.10;;
71164;SDS011;58859;55.132;-1.586;2023-04-15T10:31:03;9.07;;;4.53;;
71164;SDS011;58859;55.132;-1.586;2023-04-15T10:33:30;11.57;;;4.90;;
71164;SDS011;58859;55.132;-1.586;2023-04-15T10:35:56;9.83;;;4.70;;
71164;SDS011;58859;55.132;-1.586;2023-04-15T10:43:54;8.63;;;3.67;;
71164;SDS011;58859;55.132;-1.586;2023-04-15T10:46:43;9.32;;;3.72;;
71164;SDS011;58859;55.132;-1.586;2023-04-15T10:49:09;9.57;;;2.90;;
71164;SDS011;58859;55.132;-1.586;2023-04-15T10:51:40;8.52;;;2.92;;
71164;SDS011;58859;55.132;-1.586;2023-04-15T10:54:14;10.20;;;2.88;;
71164;SDS011;58859;55.132;-1.586;2023-04-15T10:59:28;8.03;;;2.53;;
71164;SDS011;58859;55.132;-1.586;2023-04-15T11:02:00;8.52;;;1.80;;
71164;SDS011;58859;55.132;-1.586;2023-04-15T11:10:00;8.95;;;1.95;;
71164;SDS011;58859;55.132;-1.586;2023-04-15T11:12:35;8.20;;;2.08;;
71164;SDS011;58859;55.132;-1.586;2023-04-15T11:18:08;5.30;;;1.90;;
71164;SDS011;58859;55.132;-1.586;2023-04-15T11:20:36;7.20;;;2.05;;
71164;SDS011;58859;55.132;-1.586;2023-04-15T11:23:03;8.85;;;2.05;;
71164;SDS011;58859;55.132;-1.586;2023-04-15T11:25:30;3.75;;;2.15;;
71164;SDS011;58859;55.132;-1.586;2023-04-15T11:27:58;5.20;;;1.98;;
71164;SDS011;58859;55.132;-1.586;2023-04-15T11:30:25;6.03;;;1.70;;
71164;SDS011;58859;55.132;-1.586;2023-04-15T11:32:53;6.30;;;1.48;;
71164;SDS011;58859;55.132;-1.586;2023-04-15T11:35:19;8.20;;;2.28;;
71164;SDS011;58859;55.132;-1.586;2023-04-15T11:37:46;6.15;;;1.73;;
71164;SDS011;58859;55.132;-1.586;2023-04-15T11:40:16;8.43;;;2.28;;
71164;SDS011;58859;55.132;-1.586;2023-04-15T11:43:02;7.05;;;2.10;;
71164;SDS011;58859;55.132;-1.586;2023-04-15T11:45:56;6.22;;;2.40;;
71164;SDS011;58859;55.132;-1.586;2023-04-15T11:48:25;8.52;;;3.20;;
71164;SDS011;58859;55.132;-1.586;2023-04-15T11:50:53;3.95;;;1.95;;
71164;SDS011;58859;55.132;-1.586;2023-04-15T11:53:19;8.23;;;2.22;;
71164;SDS011;58859;55.132;-1.586;2023-04-15T11:58:16;6.53;;;2.00;;
71164;SDS011;58859;55.132;-1.586;2023-04-15T12:00:47;4.82;;;1.48;;
71164;SDS011;58859;55.132;-1.586;2023-04-15T12:13:52;7.13;;;1.77;;
71164;SDS011;58859;55.132;-1.586;2023-04-15T12:16:20;6.13;;;2.22;;
71164;SDS011;58859;55.132;-1.586;2023-04-15T12:18:49;10.00;;;2.40;;
71164;SDS011;58859;55.132;-1.586;2023-04-15T12:21:17;10.90;;;1.27;;
71164;SDS011;58859;55.132;-1.586;2023-04-15T12:23:49;3.00;;;1.50;;
71164;SDS011;58859;55.132;-1.586;2023-04-15T12:26:26;8.25;;;1.67;;
71164;SDS011;58859;55.132;-1.586;2023-04-15T12:28:54;6.85;;;1.50;;
71164;SDS011;58859;55.132;-1.586;2023-04-15T12:31:26;6.22;;;1.60;;
71164;SDS011;58859;55.132;-1.586;2023-04-15T12:33:54;5.22;;;1.35;;
71164;SDS011;58859;55.132;-1.586;2023-04-15T12:36:20;8.68;;;1.90;;
71164;SDS011;58859;55.132;-1.586;2023-04-15T12:38:46;4.00;;;1.60;;
71164;SDS011;58859;55.132;-1.586;2023-04-15T12:41:11;7.43;;;2.47;;
71164;SDS011;58859;55.132;-1.586;2023-04-15T12:43:36;5.30;;;1.88;;
71164;SDS011;58859;55.132;-1.586;2023-04-15T12:46:02;9.27;;;2.33;;
71164;SDS011;58859;55.132;-1.586;2023-04-15T12:48:28;6.95;;;2.28;;
71164;SDS011;58859;55.132;-1.586;2023-04-15T12:50:54;5.87;;;2.20;;
71164;SDS011;58859;55.132;-1.586;2023-04-15T12:53:20;4.93;;;2.10;;
71164;SDS011;58859;55.132;-1.586;2023-04-15T12:55:45;4.47;;;1.70;;
71164;SDS011;58859;55.132;-1.586;2023-04-15T12:58:11;5.93;;;2.27;;
71164;SDS011;58859;55.132;-1.586;2023-04-15T13:00:36;8.38;;;2.60;;
71164;SDS011;58859;55.132;-1.586;2023-04-15T13:03:02;11.40;;;2.30;;
71164;SDS011;58859;55.132;-1.586;2023-04-15T13:05:28;5.28;;;1.70;;
71164;SDS011;58859;55.132;-1.586;2023-04-15T13:07:53;5.60;;;2.23;;
71164;SDS011;58859;55.132;-1.586;2023-04-15T13:10:19;6.65;;;2.30;;
71164;SDS011;58859;55.132;-1.586;2023-04-15T13:12:46;10.95;;;2.85;;
71164;SDS011;58859;55.132;-1.586;2023-04-15T13:15:16;7.50;;;2.10;;
71164;SDS011;58859;55.132;-1.586;2023-04-15T13:17:44;6.18;;;1.75;;
71164;SDS011;58859;55.132;-1.586;2023-04-15T13:20:10;5.47;;;1.95;;
71164;SDS011;58859;55.132;-1.586;2023-04-15T13:22:36;9.27;;;1.80;;
71164;SDS011;58859;55.132;-1.586;2023-04-15T13:25:01;5.17;;;2.10;;
71164;SDS011;58859;55.132;-1.586;2023-04-15T13:27:27;5.70;;;2.08;;
71164;SDS011;58859;55.132;-1.586;2023-04-15T13:29:53;5.90;;;2.03;;
71164;SDS011;58859;55.132;-1.586;2023-04-15T13:32:19;7.80;;;2.70;;
71164;SDS011;58859;55.132;-1.586;2023-04-15T13:34:44;6.47;;;1.70;;
71164;SDS011;58859;55.132;-1.586;2023-04-15T13:37:09;3.38;;;2.08;;
71164;SDS011;58859;55.132;-1.586;2023-04-15T13:39:35;7.30;;;1.98;;
71164;SDS011;58859;55.132;-1.586;2023-04-15T13:42:00;7.97;;;2.00;;
71164;SDS011;58859;55.132;-1.586;2023-04-15T13:44:27;3.08;;;1.85;;
71164;SDS011;58859;55.132;-1.586;2023-04-15T13:46:52;5.73;;;1.97;;
71164;SDS011;58859;55.132;-1.586;2023-04-15T13:49:18;4.60;;;2.00;;
71164;SDS011;58859;55.132;-1.586;2023-04-15T13:51:43;7.25;;;2.25;;
71164;SDS011;58859;55.132;-1.586;2023-04-15T13:54:08;5.57;;;2.27;;
71164;SDS011;58859;55.132;-1.586;2023-04-15T13:56:34;6.13;;;2.20;;
71164;SDS011;58859;55.132;-1.586;2023-04-15T13:58:59;5.10;;;2.53;;
71164;SDS011;58859;55.132;-1.586;2023-04-15T14:01:26;6.27;;;1.93;;
71164;SDS011;58859;55.132;-1.586;2023-04-15T14:03:52;6.85;;;1.92;;
71164;SDS011;58859;55.132;-1.586;2023-04-15T14:06:17;8.23;;;3.00;;
71164;SDS011;58859;55.132;-1.586;2023-04-15T14:08:43;6.70;;;2.70;;
71164;SDS011;58859;55.132;-1.586;2023-04-15T14:11:08;6.67;;;2.30;;
71164;SDS011;58859;55.132;-1.586;2023-04-15T14:13:34;5.40;;;2.90;;
71164;SDS011;58859;55.132;-1.586;2023-04-15T14:16:00;7.00;;;3.08;;
71164;SDS011;58859;55.132;-1.586;2023-04-15T14:18:26;8.52;;;2.55;;
71164;SDS011;58859;55.132;-1.586;2023-04-15T14:20:51;6.90;;;2.50;;
71164;SDS011;58859;55.132;-1.586;2023-04-15T14:23:17;11.43;;;3.07;;
71164;SDS011;58859;55.132;-1.586;2023-04-15T14:25:42;9.20;;;2.37;;
71164;SDS011;58859;55.132;-1.586;2023-04-15T14:28:08;4.60;;;2.33;;
71164;SDS011;58859;55.132;-1.586;2023-04-15T14:30:33;7.23;;;2.33;;
71164;SDS011;58859;55.132;-1.586;2023-04-15T14:32:59;5.57;;;2.15;;
71164;SDS011;58859;55.132;-1.586;2023-04-15T14:35:25;12.07;;;2.08;;
71164;SDS011;58859;55.132;-1.586;2023-04-15T14:37:54;5.07;;;2.33;;
71164;SDS011;58859;55.132;-1.586;2023-04-15T14:40:20;5.47;;;2.00;;
71164;SDS011;58859;55.132;-1.586;2023-04-15T14:42:45;4.72;;;2.60;;
71164;SDS011;58859;55.132;-1.586;2023-04-15T14:45:11;6.67;;;2.57;;
71164;SDS011;58859;55.132;-1.586;2023-04-15T14:47:36;6.77;;;2.37;;
71164;SDS011;58859;55.132;-1.586;2023-04-15T14:50:02;7.07;;;2.65;;
71164;SDS011;58859;55.132;-1.586;2023-04-15T14:52:29;6.60;;;1.73;;
71164;SDS011;58859;55.132;-1.586;2023-04-15T14:54:56;7.47;;;3.28;;
71164;SDS011;58859;55.132;-1.586;2023-04-15T14:57:21;10.00;;;4.67;;